Time;durP1;ratioP1;P1;durP2;ratioP2;P2;SDS_P1;SDS_P2;PMS_P1;PMS_P2;Temp;Humidity;BMP_temperature;BMP_pressure;BME280_temperature;BME280_humidity;BME280_pressure;Samples;Min_cycle;Max_cycle;Signal;HPM_P1;HPM_P2
2020/12/12 00:00:07;;;;;;;0.98;0.15;;;13.70;51.50;;;;;;5020882;28;79841;-75
2020/12/12 00:02:38;;;;;;;1.70;0.40;;;13.70;51.70;;;;;;5021590;28;81235;-73
2020/12/12 00:08:31;;;;;;;1.50;0.30;;;13.70;52.10;;;;;;4945354;28;80031;-73
2020/12/12 00:11:22;;;;;;;1.45;0.47;;;13.60;52.40;;;;;;4912574;28;79989;-71
2020/12/12 00:14:18;;;;;;;2.58;0.47;;;13.60;52.10;;;;;;4964513;28;81279;-73
2020/12/12 00:16:52;;;;;;;1.63;0.30;;;13.60;52.20;;;;;;4964907;28;79759;-72
2020/12/12 00:19:35;;;;;;;0.88;0.20;;;13.50;52.60;;;;;;4963246;28;80353;-73
2020/12/12 00:22:24;;;;;;;3.30;0.60;;;13.50;52.70;;;;;;4957502;28;80328;-72
2020/12/12 00:25:40;;;;;;;1.38;0.40;;;13.50;52.80;;;;;;4947300;28;80698;-71
2020/12/12 00:28:26;;;;;;;1.48;0.38;;;13.50;52.80;;;;;;4925160;28;80018;-74
2020/12/12 00:31:06;;;;;;;4.75;0.77;;;13.40;53.20;;;;;;4965178;28;79742;-74
2020/12/12 00:33:50;;;;;;;4.80;0.47;;;13.40;53.40;;;;;;4981958;28;80944;-73
2020/12/12 00:36:29;;;;;;;2.83;0.50;;;13.40;53.50;;;;;;5044749;28;80675;-74
2020/12/12 00:39:22;;;;;;;2.50;0.82;;;13.30;53.60;;;;;;5046695;28;80956;-73
2020/12/12 00:42:05;;;;;;;1.77;0.50;;;13.30;53.20;;;;;;5005531;28;81251;-75
2020/12/12 00:44:57;;;;;;;2.20;0.35;;;13.30;53.40;;;;;;5044850;28;80705;-77
2020/12/12 00:47:35;;;;;;;4.13;0.30;;;13.20;53.70;;;;;;5046987;28;81071;-75
2020/12/12 00:50:14;;;;;;;3.28;0.90;;;13.20;53.90;;;;;;5044341;28;80246;-75
2020/12/12 00:53:04;;;;;;;3.28;0.50;;;13.20;54.00;;;;;;5027908;28;80685;-76
2020/12/12 00:56:08;;;;;;;3.60;0.60;;;13.10;54.00;;;;;;5030275;27;80565;-70
2020/12/12 01:02:11;;;;;;;2.45;0.57;;;13.00;53.50;;;;;;4965479;28;81361;-73
2020/12/12 01:04:52;;;;;;;9.10;1.90;;;13.00;53.60;;;;;;5025961;28;82467;-70
2020/12/12 01:07:58;;;;;;;7.13;1.02;;;13.00;53.50;;;;;;5045242;28;80539;-71
2020/12/12 01:10:44;;;;;;;4.65;1.33;;;13.00;53.30;;;;;;4927972;28;81162;-74
2020/12/12 01:14:08;;;;;;;4.00;1.25;;;12.90;53.20;;;;;;5003656;28;80253;-74
2020/12/12 01:16:50;;;;;;;7.38;1.10;;;12.90;53.30;;;;;;5044875;28;80783;-74
2020/12/12 01:19:42;;;;;;;4.45;1.17;;;12.80;53.70;;;;;;5053008;27;80518;-73
2020/12/12 01:22:27;;;;;;;4.10;1.23;;;12.80;53.20;;;;;;5022002;28;80016;-73
2020/12/12 01:25:22;;;;;;;5.18;1.25;;;12.80;53.60;;;;;;5041125;28;80528;-73
2020/12/12 01:28:14;;;;;;;7.13;0.90;;;12.70;53.50;;;;;;5043450;28;80135;-70
2020/12/12 01:31:03;;;;;;;6.25;1.27;;;12.70;53.70;;;;;;5026730;28;79940;-71
2020/12/12 01:34:06;;;;;;;5.60;1.17;;;12.60;53.60;;;;;;5012491;28;82710;-74
2020/12/12 01:36:36;;;;;;;8.15;1.10;;;12.60;52.90;;;;;;4988994;28;80413;-72
2020/12/12 01:39:18;;;;;;;9.05;1.30;;;12.60;53.10;;;;;;5010719;28;81326;-72
2020/12/12 01:42:10;;;;;;;7.75;2.20;;;12.60;53.10;;;;;;5007416;28;80902;-73
2020/12/12 01:45:23;;;;;;;10.45;2.03;;;12.60;52.90;;;;;;4995800;28;82977;-72
2020/12/12 01:47:50;;;;;;;7.18;1.38;;;12.50;53.20;;;;;;4933420;28;80557;-74
2020/12/12 01:50:25;;;;;;;10.50;2.08;;;12.50;53.30;;;;;;4966875;28;80774;-73
2020/12/12 01:53:17;;;;;;;6.72;1.45;;;12.50;53.40;;;;;;4966623;28;80666;-74
2020/12/12 01:56:13;;;;;;;8.27;2.63;;;12.50;53.30;;;;;;4965865;28;81134;-71
2020/12/12 01:59:09;;;;;;;14.50;2.85;;;12.50;53.20;;;;;;4966687;28;81557;-74
2020/12/12 02:01:51;;;;;;;13.50;2.55;;;12.50;53.30;;;;;;4967344;28;83368;-76
2020/12/12 02:04:33;;;;;;;5.38;0.93;;;12.40;53.40;;;;;;4952438;28;80407;-70
2020/12/12 02:10:56;;;;;;;10.57;2.13;;;12.40;53.60;;;;;;4927586;28;80199;-75
2020/12/12 02:13:35;;;;;;;6.90;1.73;;;12.40;53.70;;;;;;4927126;28;81649;-72
2020/12/12 02:16:14;;;;;;;7.32;1.80;;;12.40;53.80;;;;;;4985845;28;83439;-73
2020/12/12 02:18:58;;;;;;;7.97;1.40;;;12.30;53.90;;;;;;4984815;28;80666;-74
2020/12/12 02:21:25;;;;;;;9.73;1.95;;;12.40;54.10;;;;;;4996663;28;83475;-74
2020/12/12 02:27:43;;;;;;;9.10;2.60;;;12.30;54.20;;;;;;4987896;28;80108;-76
2020/12/12 02:30:19;;;;;;;6.97;1.45;;;12.30;54.30;;;;;;4892775;28;81161;-80
2020/12/12 02:33:08;;;;;;;8.27;1.83;;;12.20;54.40;;;;;;4962829;28;83434;-72
2020/12/12 02:35:46;;;;;;;10.90;1.70;;;12.20;54.30;;;;;;4952880;28;82615;-74
2020/12/12 02:38:16;;;;;;;9.48;1.92;;;12.20;54.20;;;;;;5000047;28;82467;-72
2020/12/12 02:41:09;;;;;;;11.75;2.30;;;12.20;53.90;;;;;;5044197;27;80710;-72
2020/12/12 02:44:07;;;;;;;7.40;1.40;;;12.20;53.80;;;;;;5034950;28;80662;-72
2020/12/12 02:47:02;;;;;;;17.42;2.30;;;12.20;53.60;;;;;;5046382;28;80574;-73
2020/12/12 02:50:08;;;;;;;12.35;2.03;;;12.20;53.70;;;;;;5007697;28;82534;-72
2020/12/12 02:52:58;;;;;;;12.05;2.47;;;12.20;53.60;;;;;;5025680;28;81260;-71
2020/12/12 02:55:36;;;;;;;11.80;1.42;;;12.20;53.90;;;;;;5008029;28;80207;-75
2020/12/12 02:58:29;;;;;;;6.88;1.63;;;12.10;54.00;;;;;;5013904;28;81874;-77
2020/12/12 03:01:06;;;;;;;12.13;2.35;;;12.10;54.00;;;;;;5021427;28;80423;-78
2020/12/12 03:03:58;;;;;;;8.80;1.70;;;12.10;54.00;;;;;;5008136;28;80864;-76
2020/12/12 03:06:46;;;;;;;;;;;;;;;;;;;;;
2020/12/12 03:09:22;;;;;;;7.43;1.70;;;12.10;53.90;;;;;;5016268;28;109852;-80
2020/12/12 03:12:19;;;;;;;10.75;2.53;;;12.00;54.00;;;;;;5020242;28;80001;-78
2020/12/12 03:15:00;;;;;;;12.02;2.00;;;12.10;54.00;;;;;;5026431;28;80897;-83
2020/12/12 03:17:55;;;;;;;11.13;2.23;;;12.00;54.10;;;;;;5026209;28;80754;-78
2020/12/12 03:20:30;;;;;;;9.98;1.80;;;12.00;54.20;;;;;;5010902;28;82802;-81
2020/12/12 03:23:29;;;;;;;13.13;1.65;;;12.00;54.40;;;;;;5016979;28;80637;-84
2020/12/12 03:26:21;;;;;;;14.15;1.92;;;12.00;54.50;;;;;;5031362;28;81092;-79
2020/12/12 03:29:25;;;;;;;13.88;2.50;;;12.00;54.50;;;;;;5047143;28;80142;-77
2020/12/12 03:32:00;;;;;;;10.38;2.13;;;12.00;54.60;;;;;;5047341;27;80965;-75
2020/12/12 03:34:34;;;;;;;8.50;1.90;;;11.90;54.70;;;;;;5043652;28;79835;-79
2020/12/12 03:37:42;;;;;;;12.40;2.75;;;11.90;54.90;;;;;;5047651;27;80570;-77
2020/12/12 03:40:42;;;;;;;11.65;2.20;;;11.90;54.90;;;;;;5046835;27;79992;-81
2020/12/12 03:43:24;;;;;;;10.38;2.08;;;11.90;54.80;;;;;;5008021;27;81147;-80
2020/12/12 03:46:01;;;;;;;11.50;1.65;;;11.90;55.00;;;;;;5045349;27;80771;-74
2020/12/12 03:48:45;;;;;;;13.75;2.28;;;11.90;55.10;;;;;;5045175;27;81128;-71
2020/12/12 03:51:24;;;;;;;13.40;2.63;;;11.80;55.20;;;;;;5045760;27;81049;-75
2020/12/12 03:57:27;;;;;;;11.20;2.95;;;11.70;55.30;;;;;;5041127;28;80573;-72
2020/12/12 04:00:08;;;;;;;7.78;1.30;;;11.70;55.30;;;;;;5040701;27;81159;-73
2020/12/12 04:02:40;;;;;;;9.50;1.85;;;11.70;55.40;;;;;;5024297;28;80129;-70
2020/12/12 04:05:19;;;;;;;13.77;2.35;;;11.70;55.30;;;;;;5044316;28;80943;-69
2020/12/12 04:08:07;;;;;;;16.55;2.45;;;11.70;55.30;;;;;;5028444;28;80830;-71
2020/12/12 04:10:48;;;;;;;9.65;1.40;;;11.80;55.30;;;;;;5042331;28;80690;-73
2020/12/12 04:13:54;;;;;;;13.38;2.42;;;11.70;55.50;;;;;;5029572;27;80027;-78
2020/12/12 04:16:29;;;;;;;11.45;3.40;;;11.70;55.40;;;;;;5047949;28;80598;-72
2020/12/12 04:19:02;;;;;;;9.77;1.83;;;11.70;55.60;;;;;;5047229;28;80640;-75
2020/12/12 04:21:53;;;;;;;8.43;2.83;;;11.70;55.60;;;;;;5045877;27;80744;-75
2020/12/12 04:25:05;;;;;;;12.50;3.15;;;11.70;55.60;;;;;;5041003;28;79953;-79
2020/12/12 04:27:39;;;;;;;10.02;2.03;;;11.70;55.80;;;;;;5043400;27;81269;-76
2020/12/12 04:30:35;;;;;;;9.45;1.88;;;11.60;55.90;;;;;;5026745;28;80413;-76
2020/12/12 04:33:09;;;;;;;10.32;2.03;;;11.60;55.90;;;;;;5026192;28;83721;-72
2020/12/12 04:35:44;;;;;;;11.05;3.08;;;11.50;56.00;;;;;;5025501;28;80403;-80
2020/12/12 04:39:06;;;;;;;10.48;2.13;;;11.50;55.90;;;;;;5042756;28;80616;-70
2020/12/12 04:41:46;;;;;;;6.25;1.40;;;11.60;55.70;;;;;;5045570;28;80614;-78
2020/12/12 04:44:18;;;;;;;9.10;2.03;;;11.60;56.10;;;;;;5046225;28;80788;-78
2020/12/12 04:46:53;;;;;;;17.13;2.83;;;11.50;56.10;;;;;;5045841;28;82679;-72
2020/12/12 04:49:51;;;;;;;8.35;2.28;;;11.50;55.80;;;;;;5047047;27;80107;-75
2020/12/12 04:52:24;;;;;;;11.43;2.20;;;11.50;55.30;;;;;;5030022;28;80966;-71
2020/12/12 04:55:11;;;;;;;10.65;2.97;;;11.50;55.30;;;;;;5044312;27;80869;-78
2020/12/12 04:58:06;;;;;;;11.25;2.80;;;11.50;55.10;;;;;;5045469;27;80541;-79
2020/12/12 05:00:44;;;;;;;10.02;2.08;;;11.50;55.40;;;;;;5041052;28;80481;-79
2020/12/12 05:03:40;;;;;;;12.00;2.05;;;11.50;55.60;;;;;;5045767;28;80950;-82
2020/12/12 05:06:54;;;;;;;14.48;2.50;;;11.40;55.80;;;;;;5043668;28;80834;-81
2020/12/12 05:09:27;;;;;;;10.18;2.05;;;11.50;55.60;;;;;;5045656;28;80196;-82
2020/12/12 05:11:57;;;;;;;10.73;2.83;;;11.40;55.80;;;;;;5047044;27;81545;-77
2020/12/12 05:22:06;;;;;;;6.57;2.40;;;11.40;55.80;;;;;;4980262;28;79994;-79
2020/12/12 05:24:49;;;;;;;14.23;3.28;;;11.40;56.00;;;;;;4965764;28;80140;-75
2020/12/12 05:27:40;;;;;;;8.90;2.08;;;11.40;56.20;;;;;;4954193;28;80237;-74
2020/12/12 05:30:56;;;;;;;7.25;2.38;;;11.40;56.20;;;;;;4951149;28;81025;-73
2020/12/12 05:33:28;;;;;;;18.15;2.08;;;11.40;56.30;;;;;;4908151;28;82345;-71
2020/12/12 05:36:16;;;;;;;8.50;1.83;;;11.40;56.40;;;;;;4908527;28;80044;-75
2020/12/12 05:39:20;;;;;;;13.93;2.90;;;11.40;56.40;;;;;;4908642;28;80104;-75
2020/12/12 05:41:57;;;;;;;12.27;2.85;;;11.40;56.50;;;;;;4899468;28;80676;-74
2020/12/12 05:44:32;;;;;;;12.02;2.47;;;11.40;56.90;;;;;;4902313;28;80557;-70
2020/12/12 05:47:18;;;;;;;8.35;1.63;;;11.30;56.90;;;;;;4943970;28;81102;-78
2020/12/12 05:50:00;;;;;;;8.02;1.92;;;11.30;56.80;;;;;;4932988;28;81354;-71
2020/12/12 05:52:59;;;;;;;10.77;2.75;;;11.30;56.90;;;;;;4946797;28;80701;-71
2020/12/12 05:55:46;;;;;;;12.95;2.25;;;11.30;56.90;;;;;;4943516;28;80735;-71
2020/12/12 05:58:31;;;;;;;11.43;2.00;;;11.30;57.00;;;;;;4946841;28;81231;-71
2020/12/12 06:01:26;;;;;;;7.95;1.80;;;11.20;57.00;;;;;;4946841;28;80601;-70
2020/12/12 06:07:56;;;;;;;11.55;1.85;;;11.20;57.10;;;;;;4930061;28;80244;-72
2020/12/12 06:11:02;;;;;;;7.63;1.85;;;11.20;57.30;;;;;;4969838;28;79736;-71
2020/12/12 06:14:14;;;;;;;5.45;2.00;;;11.20;57.30;;;;;;4967875;28;83722;-74
2020/12/12 06:17:11;;;;;;;16.33;3.20;;;11.20;57.20;;;;;;4948291;28;80069;-71
2020/12/12 06:23:22;;;;;;;13.40;2.65;;;11.20;57.50;;;;;;4930896;28;80086;-73
2020/12/12 06:26:00;;;;;;;9.20;1.77;;;11.10;57.80;;;;;;4958637;28;80927;-73
2020/12/12 06:28:40;;;;;;;9.93;1.95;;;11.10;57.80;;;;;;4983212;28;81556;-74
2020/12/12 06:31:29;;;;;;;11.07;2.20;;;11.10;57.80;;;;;;4985160;28;80060;-71
2020/12/12 06:34:28;;;;;;;11.93;2.20;;;11.10;57.70;;;;;;4985974;28;81813;-77
2020/12/12 06:37:29;;;;;;;11.48;1.73;;;11.10;57.70;;;;;;4989967;27;80338;-73
2020/12/12 06:40:22;;;;;;;9.43;1.92;;;11.10;57.70;;;;;;5048133;27;80827;-74
2020/12/12 06:43:01;;;;;;;7.90;1.80;;;11.10;57.50;;;;;;5026584;27;80478;-75
2020/12/12 06:45:50;;;;;;;11.15;2.08;;;11.10;57.50;;;;;;5033881;28;81167;-76
2020/12/12 06:49:06;;;;;;;11.82;1.85;;;11.20;57.40;;;;;;5007735;27;80454;-75
2020/12/12 06:51:36;;;;;;;7.83;1.90;;;11.10;57.50;;;;;;5039823;28;82945;-74
2020/12/12 06:54:34;;;;;;;9.13;2.05;;;11.10;57.60;;;;;;5048118;27;80794;-73
2020/12/12 06:57:24;;;;;;;18.08;2.13;;;11.10;57.50;;;;;;5046406;28;83611;-70
2020/12/12 07:00:00;;;;;;;11.57;2.15;;;11.10;57.50;;;;;;5044994;28;80322;-73
2020/12/12 07:02:52;;;;;;;11.60;2.85;;;11.10;57.40;;;;;;5046030;27;81305;-72
2020/12/12 07:05:43;;;;;;;11.57;2.45;;;11.10;57.40;;;;;;5046163;28;80564;-76
2020/12/12 07:08:56;;;;;;;9.77;1.73;;;11.10;57.50;;;;;;5046491;28;83959;-76
2020/12/12 07:11:35;;;;;;;11.50;2.17;;;11.10;57.40;;;;;;5022794;28;81020;-72
2020/12/12 07:14:45;;;;;;;12.45;1.55;;;11.10;57.50;;;;;;5034500;28;79860;-77
2020/12/12 07:17:26;;;;;;;10.93;2.15;;;11.20;57.30;;;;;;5036430;28;80865;-75
2020/12/12 07:20:09;;;;;;;9.00;3.13;;;11.20;57.30;;;;;;5046096;28;80805;-73
2020/12/12 07:22:54;;;;;;;9.05;1.90;;;11.20;57.30;;;;;;5049132;28;80533;-74
2020/12/12 07:25:38;;;;;;;11.43;2.28;;;11.10;57.20;;;;;;5043428;27;79804;-76
2020/12/12 07:28:41;;;;;;;11.07;2.47;;;11.20;57.10;;;;;;5047098;28;79947;-73
2020/12/12 07:31:47;;;;;;;5.85;1.75;;;11.20;57.20;;;;;;5021395;28;80121;-78
2020/12/12 07:34:56;;;;;;;5.30;2.13;;;11.20;57.40;;;;;;4999309;28;82720;-76
2020/12/12 07:37:44;;;;;;;7.55;2.17;;;11.10;57.60;;;;;;4997928;28;81230;-70
2020/12/12 07:40:19;;;;;;;10.32;2.30;;;11.00;57.90;;;;;;5047495;27;80503;-69
2020/12/12 07:42:49;;;;;;;8.57;2.13;;;11.00;58.00;;;;;;5045555;28;81358;-70
2020/12/12 07:48:25;;;;;;;11.25;1.85;;;11.00;58.10;;;;;;5043455;28;80522;-68
2020/12/12 07:51:31;;;;;;;6.95;2.40;;;11.00;58.20;;;;;;5041992;28;80764;-68
2020/12/12 07:54:23;;;;;;;11.38;1.83;;;11.10;57.60;;;;;;4960501;28;82871;-68
2020/12/12 07:57:03;;;;;;;10.00;2.22;;;11.10;57.40;;;;;;4952940;28;80358;-68
2020/12/12 07:59:45;;;;;;;4.60;1.63;;;11.20;57.10;;;;;;4965517;28;80077;-74
2020/12/12 08:02:25;;;;;;;9.98;2.55;;;11.20;57.20;;;;;;4980930;28;80887;-68
2020/12/12 08:05:01;;;;;;;11.05;2.10;;;11.20;57.10;;;;;;4990599;28;81087;-69
2020/12/12 08:07:50;;;;;;;7.13;1.42;;;11.30;56.70;;;;;;5023090;28;79928;-68
2020/12/12 08:10:39;;;;;;;9.25;1.70;;;11.40;56.20;;;;;;5024787;28;80756;-74
2020/12/12 08:13:24;;;;;;;14.40;2.30;;;11.50;56.30;;;;;;5020539;28;80468;-68
2020/12/12 08:16:13;;;;;;;9.68;1.98;;;11.50;56.20;;;;;;5019276;28;81197;-69
2020/12/12 08:18:50;;;;;;;;;;;11.50;56.20;;;;;;4997497;28;79876;-68
2020/12/12 08:21:36;;;;;;;7.95;1.98;;;11.40;55.70;;;;;;5028596;28;74660;-69
2020/12/12 08:24:50;;;;;;;13.05;2.20;;;11.50;55.60;;;;;;5027455;28;80121;-75
2020/12/12 08:27:31;;;;;;;7.30;1.92;;;11.60;55.00;;;;;;4974489;28;79973;-71
2020/12/12 08:30:17;;;;;;;19.48;3.53;;;11.60;55.10;;;;;;5016455;27;80340;-79
2020/12/12 08:33:17;;;;;;;12.20;2.55;;;11.70;55.10;;;;;;5044286;28;80153;-70
2020/12/12 08:36:48;;;;;;;12.18;2.65;;;11.80;55.00;;;;;;5045764;28;80619;-69
2020/12/12 08:39:41;;;;;;;11.15;1.77;;;11.80;55.20;;;;;;5025128;28;81390;-73
2020/12/12 08:42:31;;;;;;;8.05;1.80;;;11.90;55.00;;;;;;5028225;28;80420;-73
2020/12/12 08:45:36;;;;;;;10.07;2.40;;;11.90;55.00;;;;;;5010187;28;80718;-73
2020/12/12 08:48:59;;;;;;;10.00;1.80;;;12.00;54.80;;;;;;4997353;28;80719;-62
2020/12/12 08:51:35;;;;;;;8.75;1.95;;;12.00;54.80;;;;;;4967659;28;80819;-64
2020/12/12 08:54:35;;;;;;;6.03;2.20;;;12.10;54.60;;;;;;4967133;28;80500;-63
2020/12/12 08:57:47;;;;;;;7.13;1.70;;;12.20;54.50;;;;;;4965989;28;81172;-60
2020/12/12 09:00:26;;;;;;;9.05;1.77;;;12.20;54.00;;;;;;4946580;28;80703;-60
2020/12/12 09:03:26;;;;;;;8.23;1.75;;;12.30;53.30;;;;;;4932272;28;83073;-59
2020/12/12 09:07:02;;;;;;;9.93;2.50;;;12.40;52.40;;;;;;4946389;28;80336;-60
2020/12/12 09:10:15;;;;;;;11.50;2.45;;;12.50;52.90;;;;;;4940289;28;80077;-61
2020/12/12 09:13:22;;;;;;;10.23;2.35;;;12.50;53.20;;;;;;4909189;28;81066;-61
2020/12/12 09:16:16;;;;;;;11.65;2.15;;;12.70;53.20;;;;;;4899251;28;80808;-61
2020/12/12 09:19:23;;;;;;;10.93;2.53;;;12.90;52.70;;;;;;4890909;28;82213;-60
2020/12/12 09:21:56;;;;;;;8.73;2.42;;;13.10;52.10;;;;;;4974911;28;80755;-61
2020/12/12 09:25:01;;;;;;;11.13;2.60;;;13.40;51.20;;;;;;4987159;28;80844;-60
2020/12/12 09:28:02;;;;;;;7.63;1.63;;;13.50;51.20;;;;;;4874173;28;81306;-59
2020/12/12 09:31:15;;;;;;;11.05;2.42;;;13.70;50.30;;;;;;4887148;28;80664;-65
2020/12/12 09:36:59;;;;;;;10.55;2.35;;;14.40;48.80;;;;;;4898058;28;80122;-64
2020/12/12 09:39:30;;;;;;;7.68;1.98;;;14.60;47.60;;;;;;5037403;28;81199;-62
2020/12/12 09:45:16;;;;;;;12.20;2.33;;;15.20;45.90;;;;;;5032088;28;80738;-62
2020/12/12 09:47:59;;;;;;;7.85;1.65;;;15.30;45.60;;;;;;5049049;28;81003;-62
2020/12/12 09:57:33;;;;;;;8.68;1.85;;;15.60;44.70;;;;;;4946449;28;81042;-61
2020/12/12 10:00:17;;;;;;;9.35;2.13;;;16.00;44.70;;;;;;4978018;28;80915;-61
2020/12/12 10:03:44;;;;;;;10.07;2.03;;;16.60;42.90;;;;;;4978480;28;80326;-65
2020/12/12 10:06:20;;;;;;;12.32;2.95;;;17.40;41.30;;;;;;4957498;28;80392;-68
2020/12/12 10:09:10;;;;;;;8.68;1.92;;;17.40;41.00;;;;;;4986626;28;80139;-65
2020/12/12 10:12:14;;;;;;;14.00;2.22;;;17.80;40.50;;;;;;4986337;28;81635;-63
2020/12/12 10:14:51;;;;;;;8.73;2.15;;;17.90;39.40;;;;;;4985917;28;79976;-63
2020/12/12 10:17:22;;;;;;;10.70;2.42;;;17.50;40.40;;;;;;4981003;28;79951;-63
2020/12/12 10:20:15;;;;;;;16.58;2.13;;;18.20;39.10;;;;;;4960932;28;81381;-62
2020/12/12 10:23:15;;;;;;;9.67;1.67;;;18.90;38.10;;;;;;4967099;28;80222;-62
2020/12/12 10:25:43;;;;;;;8.10;2.20;;;19.90;36.40;;;;;;4930588;28;82600;-62
2020/12/12 10:28:31;;;;;;;10.48;2.50;;;20.00;36.10;;;;;;5008453;28;80670;-62
2020/12/12 10:31:18;;;;;;;9.40;2.50;;;20.70;35.30;;;;;;4982195;28;80773;-62
2020/12/12 10:34:11;;;;;;;11.27;2.35;;;21.10;34.00;;;;;;5028433;28;79864;-62
2020/12/12 10:37:01;;;;;;;9.40;1.83;;;22.10;32.60;;;;;;5002122;28;82441;-64
2020/12/12 10:42:37;;;;;;;10.13;2.78;;;23.50;30.60;;;;;;5028675;28;80258;-61
2020/12/12 10:48:50;;;;;;;8.90;2.03;;;21.70;33.10;;;;;;4966641;28;81153;-61
2020/12/12 10:51:26;;;;;;;7.97;1.65;;;22.30;32.40;;;;;;4966195;28;79940;-61
2020/12/12 10:54:00;;;;;;;6.78;1.98;;;22.90;31.40;;;;;;4983357;28;81466;-61
2020/12/12 10:56:48;;;;;;;7.53;2.10;;;23.50;30.30;;;;;;4986399;28;80309;-61
2020/12/12 10:59:42;;;;;;;6.45;1.73;;;24.60;29.60;;;;;;4981545;28;81017;-63
2020/12/12 11:02:16;;;;;;;8.35;1.95;;;25.40;28.80;;;;;;4946383;28;80232;-61
2020/12/12 11:05:00;;;;;;;7.82;1.70;;;26.70;26.80;;;;;;4965613;28;80599;-62
2020/12/12 11:07:47;;;;;;;7.40;2.25;;;26.10;27.50;;;;;;4985506;28;82368;-62
2020/12/12 11:10:41;;;;;;;9.48;1.55;;;25.40;28.50;;;;;;4982234;28;79995;-63
2020/12/12 11:13:38;;;;;;;7.95;1.58;;;25.70;27.70;;;;;;4985606;28;80509;-61
2020/12/12 11:16:26;;;;;;;9.45;2.88;;;25.40;27.80;;;;;;4949003;28;80796;-62
2020/12/12 11:19:22;;;;;;;6.35;1.38;;;24.90;28.80;;;;;;4984024;28;80873;-63
2020/12/12 11:25:00;;;;;;;7.53;1.75;;;25.70;27.20;;;;;;4942544;28;80256;-63
2020/12/12 11:28:01;;;;;;;13.27;2.92;;;26.20;26.70;;;;;;4985200;28;80677;-62
2020/12/12 11:30:42;;;;;;;10.07;2.53;;;27.10;25.90;;;;;;4972102;28;80850;-63
2020/12/12 11:33:27;;;;;;;7.97;1.98;;;28.40;25.10;;;;;;4985561;28;83002;-63
2020/12/12 11:36:32;;;;;;;5.85;1.70;;;29.20;23.90;;;;;;5041761;28;80924;-65
2020/12/12 11:39:38;;;;;;;;;;;;;;;;;;;;;
2020/12/12 11:48:18;;;;;;;;;;;29.70;23.40;;;;;;5027464;28;79992;-62
2020/12/12 11:51:10;;;;;;;10.38;2.85;;;30.90;22.50;;;;;;4982541;28;76263;-63
2020/12/12 11:54:14;;;;;;;6.25;1.70;;;30.40;22.50;;;;;;4977868;28;80034;-64
2020/12/12 11:57:08;;;;;;;6.60;2.28;;;30.10;22.80;;;;;;4965333;28;79908;-63
2020/12/12 12:00:09;;;;;;;7.65;2.45;;;29.30;23.50;;;;;;5001531;28;80557;-64
2020/12/12 12:02:50;;;;;;;8.23;2.72;;;29.30;23.60;;;;;;5027570;28;80810;-65
2020/12/12 12:11:35;;;;;;;;;;;29.20;23.60;;;;;;4943687;28;80168;-62
2020/12/12 12:14:39;;;;;;;10.70;2.78;;;29.90;22.80;;;;;;4917906;28;75354;-62
2020/12/12 12:17:20;;;;;;;5.32;1.67;;;29.70;23.20;;;;;;4850874;29;80354;-62
2020/12/12 12:20:01;;;;;;;12.90;1.95;;;30.30;22.70;;;;;;4945234;28;80214;-63
2020/12/12 12:22:42;;;;;;;9.73;2.33;;;30.00;22.70;;;;;;4913549;28;80033;-63
2020/12/12 12:25:20;;;;;;;5.95;1.77;;;29.10;23.70;;;;;;4954435;28;80111;-64
2020/12/12 12:27:56;;;;;;;8.48;1.80;;;29.00;23.70;;;;;;5025737;28;80314;-63
2020/12/12 12:30:41;;;;;;;10.38;3.20;;;28.90;23.90;;;;;;5018207;28;81577;-63
2020/12/12 12:33:21;;;;;;;8.45;2.03;;;29.60;23.40;;;;;;5007899;28;80383;-63
2020/12/12 12:36:34;;;;;;;9.20;2.22;;;28.70;23.90;;;;;;5025976;28;80961;-62
2020/12/12 12:39:53;;;;;;;10.05;2.25;;;28.70;23.90;;;;;;5008454;28;82320;-63
2020/12/12 12:42:44;;;;;;;7.28;2.00;;;27.90;24.30;;;;;;5025003;28;81404;-64
2020/12/12 12:45:29;;;;;;;7.28;1.95;;;27.40;25.00;;;;;;5011545;28;82263;-61
2020/12/12 12:48:04;;;;;;;10.48;2.53;;;26.50;26.40;;;;;;4996910;28;80657;-62
2020/12/12 12:50:46;;;;;;;7.70;1.98;;;27.10;25.60;;;;;;5009769;28;80397;-64
2020/12/12 12:53:26;;;;;;;12.55;2.45;;;26.40;26.10;;;;;;5006181;28;80808;-63
2020/12/12 12:56:14;;;;;;;7.93;2.20;;;25.00;27.60;;;;;;4975716;28;82053;-62
2020/12/12 12:58:44;;;;;;;8.30;1.63;;;23.70;28.50;;;;;;4966986;28;80782;-62
2020/12/12 13:01:46;;;;;;;9.40;2.17;;;22.60;30.40;;;;;;4966893;28;82309;-62
2020/12/12 13:04:55;;;;;;;8.43;1.85;;;21.60;31.80;;;;;;4976804;28;80769;-62
2020/12/12 13:10:57;;;;;;;11.18;3.22;;;22.20;31.70;;;;;;4976147;28;80654;-63
2020/12/12 13:13:43;;;;;;;10.50;2.40;;;21.70;32.00;;;;;;4983296;28;80166;-62
2020/12/12 13:16:52;;;;;;;6.47;1.77;;;21.50;32.60;;;;;;4899443;28;81318;-61
2020/12/12 13:20:30;;;;;;;8.27;1.67;;;22.00;32.30;;;;;;4983934;28;80642;-62
2020/12/12 13:22:43;;;;;;;5.50;1.70;;;23.20;30.10;;;;;;4986505;28;80948;-62
2020/12/12 13:25:21;;;;;;;5.70;1.65;;;23.90;29.10;;;;;;4970200;28;80886;-63
2020/12/12 13:33:46;;;;;;;10.98;2.60;;;20.00;33.90;;;;;;5066667;27;79817;-63
2020/12/12 13:36:37;;;;;;;5.40;1.90;;;19.40;35.00;;;;;;5064007;27;80291;-63
2020/12/12 13:39:21;;;;;;;8.23;2.30;;;18.90;35.90;;;;;;5047562;27;80849;-63
2020/12/12 13:42:10;;;;;;;;;;;;;;;;;;;;;
2020/12/12 13:44:57;;;;;;;7.22;2.47;;;18.20;37.50;;;;;;5068512;27;109917;-62
2020/12/12 13:47:36;;;;;;;9.60;2.35;;;17.90;37.90;;;;;;5061271;27;80684;-62
2020/12/12 13:50:22;;;;;;;10.25;2.38;;;17.80;38.20;;;;;;5066664;27;79812;-64
2020/12/12 13:52:58;;;;;;;7.20;2.05;;;17.80;38.40;;;;;;5054450;27;80872;-63
2020/12/12 13:55:32;;;;;;;12.48;2.13;;;17.80;38.60;;;;;;5069972;27;81728;-63
2020/12/12 13:58:13;;;;;;;10.82;1.73;;;17.80;38.60;;;;;;5050701;27;80166;-64
2020/12/12 14:01:08;;;;;;;6.80;1.40;;;17.90;38.30;;;;;;5041672;27;80128;-64
2020/12/12 14:04:11;;;;;;;8.20;2.08;;;17.90;38.20;;;;;;5061400;27;79819;-64
2020/12/12 14:07:15;;;;;;;7.97;2.20;;;17.90;38.20;;;;;;5037299;27;80432;-63
2020/12/12 14:20:49;;;;;;;10.13;2.38;;;18.00;38.60;;;;;;5069844;27;80305;-61
2020/12/12 14:25:06;;;;;;;6.95;1.88;;;18.10;38.50;;;;;;5026977;28;80334;-62
2020/12/12 14:31:34;;;;;;;;;;;;;;;;;;;;;
2020/12/12 14:34:34;;;;;;;11.60;1.67;;;18.00;38.50;;;;;;5065122;27;110229;-63
2020/12/12 14:37:53;;;;;;;7.07;1.70;;;17.90;38.70;;;;;;5069249;27;80641;-63
2020/12/12 14:40:38;;;;;;;11.38;2.38;;;17.80;39.10;;;;;;5052427;27;80892;-62
2020/12/12 14:43:09;;;;;;;8.48;2.70;;;17.60;39.60;;;;;;5009572;28;81151;-62
2020/12/12 14:45:49;;;;;;;8.35;1.80;;;17.40;39.80;;;;;;5008560;28;80341;-63
2020/12/12 14:48:50;;;;;;;6.68;1.95;;;17.30;40.20;;;;;;5025940;28;80647;-63
2020/12/12 14:51:48;;;;;;;7.63;1.77;;;17.10;40.50;;;;;;5025092;28;80084;-63
2020/12/12 14:54:56;;;;;;;9.25;2.35;;;17.00;40.90;;;;;;4994926;28;80974;-63
2020/12/12 14:57:36;;;;;;;8.95;1.60;;;16.90;41.20;;;;;;4964697;28;80029;-62
2020/12/12 15:00:35;;;;;;;10.32;1.63;;;16.70;41.20;;;;;;4965964;28;80657;-62
2020/12/12 15:03:23;;;;;;;7.38;1.45;;;16.50;42.00;;;;;;4994761;28;80465;-62
2020/12/12 15:06:19;;;;;;;11.20;2.15;;;16.50;42.20;;;;;;5005154;28;82795;-62
2020/12/12 15:09:16;;;;;;;5.88;1.27;;;16.60;42.00;;;;;;5005299;28;80341;-62
2020/12/12 15:12:15;;;;;;;10.80;2.60;;;16.60;42.00;;;;;;4995768;28;80974;-63
2020/12/12 15:14:58;;;;;;;8.55;2.63;;;16.60;42.40;;;;;;4960802;28;80372;-63
2020/12/12 15:17:46;;;;;;;9.75;2.15;;;16.80;42.10;;;;;;5005655;28;81200;-62
2020/12/12 15:20:20;;;;;;;8.98;2.00;;;16.80;41.90;;;;;;5008614;28;80083;-62
2020/12/12 15:23:41;;;;;;;11.25;2.10;;;16.80;41.90;;;;;;5024637;28;80032;-63
2020/12/12 15:26:18;;;;;;;8.68;2.15;;;16.60;41.60;;;;;;4983552;28;80794;-62
2020/12/12 15:29:06;;;;;;;8.40;2.13;;;16.40;42.40;;;;;;5025786;28;80438;-62
2020/12/12 15:32:27;;;;;;;8.73;1.83;;;16.40;42.60;;;;;;5005993;28;80936;-63
2020/12/12 15:39:05;;;;;;;11.35;1.67;;;16.30;42.50;;;;;;4945462;28;80703;-62
2020/12/12 15:42:13;;;;;;;9.25;1.83;;;16.10;43.00;;;;;;4916896;28;80011;-62
2020/12/12 15:51:16;;;;;;;11.63;1.80;;;15.70;43.50;;;;;;4926187;28;80126;-64
2020/12/12 15:53:49;;;;;;;9.07;1.95;;;15.60;44.00;;;;;;4926109;28;82830;-63
2020/12/12 15:57:27;;;;;;;9.27;1.98;;;15.60;44.10;;;;;;4925368;28;80848;-62
2020/12/12 15:59:59;;;;;;;5.40;1.98;;;15.60;44.40;;;;;;4887176;28;80035;-62
2020/12/12 16:02:54;;;;;;;8.13;2.67;;;15.50;44.80;;;;;;4924825;28;80879;-62
2020/12/12 16:05:29;;;;;;;13.63;2.47;;;15.30;45.20;;;;;;4954710;28;80113;-62
2020/12/12 16:08:03;;;;;;;10.02;1.90;;;15.30;45.40;;;;;;4987801;27;82769;-62
2020/12/12 16:10:45;;;;;;;9.80;2.80;;;15.20;46.00;;;;;;5064649;27;80113;-62
2020/12/12 16:16:37;;;;;;;10.73;3.17;;;15.20;46.40;;;;;;5056433;27;80626;-62
2020/12/12 16:19:44;;;;;;;13.07;3.00;;;15.20;46.90;;;;;;5059902;27;80519;-62
2020/12/12 16:22:52;;;;;;;8.52;1.95;;;15.20;46.90;;;;;;5066343;27;80670;-62
2020/12/12 16:25:28;;;;;;;9.85;2.58;;;15.10;46.20;;;;;;5048756;27;82356;-62
2020/12/12 16:28:04;;;;;;;8.02;2.00;;;15.00;46.10;;;;;;5051177;27;79766;-62